Time;durP1;ratioP1;P1;durP2;ratioP2;P2;SDS_P1;SDS_P2;PMS_P1;PMS_P2;Temp;Humidity;BMP_temperature;BMP_pressure;BME280_temperature;BME280_humidity;BME280_pressure;Samples;Min_cycle;Max_cycle;Signal;HPM_P1;HPM_P2
2023/02/23 00:01:53;;;;;;;;;;;;;;;;;;4899761;29;20040;-69
2023/02/23 00:04:19;;;;;;;;;;;;;;;;;;4896926;28;20439;-69
2023/02/23 00:06:45;;;;;;;;;;;;;;;;;;4918243;28;19996;-69
2023/02/23 00:09:21;;;;;;;;;;;;;;;;;;4916249;28;19918;-69
2023/02/23 00:11:47;;;;;;;;;;;;;;;;;;4916533;28;19915;-69
2023/02/23 00:14:14;;;;;;;;;;;;;;;;;;4900977;28;19922;-69
2023/02/23 00:16:44;;;;;;;;;;;;;;;;;;4917556;28;20426;-69
2023/02/23 00:19:10;;;;;;;;;;;;;;;;;;4917624;28;20033;-69
2023/02/23 00:21:37;;;;;;;;;;;;;;;;;;4903107;28;19921;-69
2023/02/23 00:24:05;;;;;;;;;;;;;;;;;;4919495;28;19926;-69
2023/02/23 00:26:33;;;;;;;;;;;;;;;;;;4895393;28;19914;-69
2023/02/23 00:28:59;;;;;;;;;;;;;;;;;;4919207;28;19914;-69
2023/02/23 00:31:26;;;;;;;;;;;;;;;;;;4917133;28;19921;-69
2023/02/23 00:33:53;;;;;;;;;;;;;;;;;;4921969;28;19915;-69
2023/02/23 00:36:19;;;;;;;;;;;;;;;;;;4915638;28;19925;-69
2023/02/23 00:38:45;;;;;;;;;;;;;;;;;;4922575;28;20059;-69
2023/02/23 00:41:11;;;;;;;;;;;;;;;;;;4923073;28;19926;-69
2023/02/23 00:43:37;;;;;;;;;;;;;;;;;;4918067;28;19933;-68
2023/02/23 00:46:06;;;;;;;;;;;;;;;;;;4902331;28;19921;-69
2023/02/23 00:48:32;;;;;;;;;;;;;;;;;;4921066;28;20446;-69
2023/02/23 00:50:58;;;;;;;;;;;;;;;;;;4917731;28;20692;-69
2023/02/23 00:53:26;;;;;;;;;;;;;;;;;;4915073;28;20378;-69
2023/02/23 00:55:52;;;;;;;;;;;;;;;;;;4913344;28;19918;-69
2023/02/23 00:58:18;;;;;;;;;;;;;;;;;;4902939;28;19944;-69
2023/02/23 01:00:44;;;;;;;;;;;;;;;;;;4920345;28;19994;-69
2023/02/23 01:03:10;;;;;;;;;;;;;;;;;;4916448;28;19986;-69
2023/02/23 01:05:36;;;;;;;;;;;;;;;;;;4917337;28;20358;-69
2023/02/23 01:08:03;;;;;;;;;;;;;;;;;;4920691;28;19993;-69
2023/02/23 01:10:29;;;;;;;;;;;;;;;;;;4915964;28;19921;-69
2023/02/23 01:12:55;;;;;;;;;;;;;;;;;;4918950;28;19911;-69
2023/02/23 01:15:21;;;;;;;;;;;;;;;;;;4915716;28;19968;-69
2023/02/23 01:17:47;;;;;;;;;;;;;;;;;;4915883;28;20242;-69
2023/02/23 01:20:19;;;;;;;;;;;;;;;;;;4920519;28;19914;-68
2023/02/23 01:22:45;;;;;;;;;;;;;;;;;;4904333;28;20000;-68
2023/02/23 01:25:11;;;;;;;;;;;;;;;;;;4904816;28;19934;-69
2023/02/23 01:27:37;;;;;;;;;;;;;;;;;;4899512;28;19953;-68
2023/02/23 01:30:03;;;;;;;;;;;;;;;;;;4919527;28;20001;-68
2023/02/23 01:32:29;;;;;;;;;;;;;;;;;;4915826;28;19930;-68
2023/02/23 01:34:55;;;;;;;;;;;;;;;;;;4922018;28;20214;-68
2023/02/23 01:37:21;;;;;;;;;;;;;;;;;;4916498;28;19922;-68
2023/02/23 01:39:47;;;;;;;;;;;;;;;;;;4923308;28;20492;-67
2023/02/23 01:42:13;;;;;;;;;;;;;;;;;;4905497;28;19918;-68
2023/02/23 01:44:39;;;;;;;;;;;;;;;;;;4919887;28;19937;-69
2023/02/23 01:47:05;;;;;;;;;;;;;;;;;;4902256;28;20326;-69
2023/02/23 01:49:31;;;;;;;;;;;;;;;;;;4918533;28;19925;-69
2023/02/23 01:51:57;;;;;;;;;;;;;;;;;;4920163;28;20317;-69
2023/02/23 01:54:23;;;;;;;;;;;;;;;;;;4917072;28;19948;-69
2023/02/23 01:56:56;;;;;;;;;;;;;;;;;;4902634;28;20763;-69
2023/02/23 01:59:22;;;;;;;;;;;;;;;;;;4917697;28;19914;-70
2023/02/23 02:01:48;;;;;;;;;;;;;;;;;;4921446;28;20242;-69
2023/02/23 02:04:15;;;;;;;;;;;;;;;;;;4906776;28;19932;-70
2023/02/23 02:06:41;;;;;;;;;;;;;;;;;;4906980;28;20361;-69
2023/02/23 02:09:08;;;;;;;;;;;;;;;;;;4924901;28;19925;-69
2023/02/23 02:11:38;;;;;;;;;;;;;;;;;;4923261;28;20039;-69
2023/02/23 02:14:04;;;;;;;;;;;;;;;;;;4921489;28;19922;-70
2023/02/23 02:16:30;;;;;;;;;;;;;;;;;;4925150;28;20459;-69
2023/02/23 02:18:56;;;;;;;;;;;;;;;;;;4921443;28;20018;-69
2023/02/23 02:21:22;;;;;;;;;;;;;;;;;;4922315;28;19914;-70
2023/02/23 02:23:48;;;;;;;;;;;;;;;;;;4908320;28;19918;-69
2023/02/23 02:26:14;;;;;;;;;;;;;;;;;;4919355;28;20526;-69
2023/02/23 02:28:40;;;;;;;;;;;;;;;;;;4921013;28;19914;-70
2023/02/23 02:31:06;;;;;;;;;;;;;;;;;;4920288;28;20277;-69
2023/02/23 02:33:33;;;;;;;;;;;;;;;;;;4905122;28;22370;-69
2023/02/23 02:35:59;;;;;;;;;;;;;;;;;;4905465;28;20001;-69
2023/02/23 02:38:25;;;;;;;;;;;;;;;;;;4925422;28;20341;-69
2023/02/23 02:40:54;;;;;;;;;;;;;;;;;;4921632;28;20420;-70
2023/02/23 02:43:20;;;;;;;;;;;;;;;;;;4921878;28;20800;-70
2023/02/23 02:45:46;;;;;;;;;;;;;;;;;;4925694;28;19921;-69
2023/02/23 02:48:13;;;;;;;;;;;;;;;;;;4919031;28;20428;-70
2023/02/23 02:50:39;;;;;;;;;;;;;;;;;;4910087;28;19926;-69
2023/02/23 02:53:05;;;;;;;;;;;;;;;;;;4921551;28;20471;-69
2023/02/23 02:55:36;;;;;;;;;;;;;;;;;;4920898;28;20708;-69
2023/02/23 02:58:02;;;;;;;;;;;;;;;;;;4924962;28;19942;-69
2023/02/23 04:19:29;;;;;;;;;;;;;;;;;;4918645;28;19922;-68
2023/02/23 04:21:55;;;;;;;;;;;;;;;;;;4915708;28;19960;-71
2023/02/23 04:24:21;;;;;;;;;;;;;;;;;;4918308;28;19922;-71
2023/02/23 04:26:47;;;;;;;;;;;;;;;;;;4921762;28;20438;-71
2023/02/23 04:29:13;;;;;;;;;;;;;;;;;;4917725;28;20013;-71
2023/02/23 04:31:40;;;;;;;;;;;;;;;;;;4923524;28;20836;-70
2023/02/23 04:34:06;;;;;;;;;;;;;;;;;;4924552;28;19914;-71
2023/02/23 04:36:32;;;;;;;;;;;;;;;;;;4915690;28;22196;-71
2023/02/23 04:38:58;;;;;;;;;;;;;;;;;;4923083;28;19966;-70
2023/02/23 04:41:24;;;;;;;;;;;;;;;;;;4904041;28;19982;-71
2023/02/23 04:43:50;;;;;;;;;;;;;;;;;;4908937;28;19929;-70
2023/02/23 04:46:16;;;;;;;;;;;;;;;;;;4921717;28;19914;-71
2023/02/23 04:48:42;;;;;;;;;;;;;;;;;;4926148;28;19919;-70
2023/02/23 04:51:08;;;;;;;;;;;;;;;;;;4919121;28;20333;-71
2023/02/23 04:53:34;;;;;;;;;;;;;;;;;;4922038;28;20021;-71
2023/02/23 04:56:00;;;;;;;;;;;;;;;;;;4921127;28;19914;-71
2023/02/23 04:58:26;;;;;;;;;;;;;;;;;;4921562;28;19926;-71
2023/02/23 05:00:52;;;;;;;;;;;;;;;;;;4902171;28;20486;-71
2023/02/23 05:03:18;;;;;;;;;;;;;;;;;;4904215;28;20362;-70
2023/02/23 05:05:44;;;;;;;;;;;;;;;;;;4912709;28;19921;-70
2023/02/23 05:08:10;;;;;;;;;;;;;;;;;;4925400;28;20404;-70
2023/02/23 05:10:36;;;;;;;;;;;;;;;;;;4920851;28;19915;-70
2023/02/23 05:13:01;;;;;;;;;;;;;;;;;;4906232;28;19999;-71
2023/02/23 05:15:27;;;;;;;;;;;;;;;;;;4917921;28;19914;-70
2023/02/23 05:17:54;;;;;;;;;;;;;;;;;;4926539;28;20200;-70
2023/02/23 05:20:20;;;;;;;;;;;;;;;;;;4918217;28;19936;-70
2023/02/23 05:22:46;;;;;;;;;;;;;;;;;;4923945;28;20666;-71
2023/02/23 05:25:12;;;;;;;;;;;;;;;;;;4901827;28;19921;-70
2023/02/23 05:27:38;;;;;;;;;;;;;;;;;;4904747;28;20007;-71
2023/02/23 05:30:06;;;;;;;;;;;;;;;;;;4920263;28;20322;-70
2023/02/23 05:32:32;;;;;;;;;;;;;;;;;;4918177;28;20021;-70
2023/02/23 05:34:58;;;;;;;;;;;;;;;;;;4901848;28;20167;-70
2023/02/23 05:37:24;;;;;;;;;;;;;;;;;;4914720;28;19970;-70
2023/02/23 05:39:50;;;;;;;;;;;;;;;;;;4904802;28;19915;-70
2023/02/23 05:42:16;;;;;;;;;;;;;;;;;;4919892;28;20151;-70
2023/02/23 05:44:41;;;;;;;;;;;;;;;;;;4920833;28;20529;-71
2023/02/23 05:47:07;;;;;;;;;;;;;;;;;;4915366;28;20178;-71
2023/02/23 05:49:34;;;;;;;;;;;;;;;;;;4918259;28;20415;-69
2023/02/23 05:51:59;;;;;;;;;;;;;;;;;;4902600;28;20350;-70
2023/02/23 05:54:26;;;;;;;;;;;;;;;;;;4921871;28;19914;-70
2023/02/23 05:56:52;;;;;;;;;;;;;;;;;;4920645;28;19926;-69
2023/02/23 05:59:18;;;;;;;;;;;;;;;;;;4902933;28;19915;-69
2023/02/23 06:01:43;;;;;;;;;;;;;;;;;;4920920;28;20393;-69
2023/02/23 06:04:10;;;;;;;;;;;;;;;;;;4924119;28;20340;-69
2023/02/23 06:06:35;;;;;;;;;;;;;;;;;;4916588;28;19918;-70
2023/02/23 06:09:02;;;;;;;;;;;;;;;;;;4917626;28;19921;-70
2023/02/23 06:11:28;;;;;;;;;;;;;;;;;;4900131;28;19914;-70
2023/02/23 06:13:54;;;;;;;;;;;;;;;;;;4917446;28;19937;-69
2023/02/23 06:16:20;;;;;;;;;;;;;;;;;;4913856;28;20453;-70
2023/02/23 06:18:46;;;;;;;;;;;;;;;;;;4919094;28;20538;-69
2023/02/23 06:21:13;;;;;;;;;;;;;;;;;;4916857;28;19969;-70
2023/02/23 06:23:39;;;;;;;;;;;;;;;;;;4924098;28;19919;-70
2023/02/23 06:26:05;;;;;;;;;;;;;;;;;;4914471;28;19913;-69
2023/02/23 06:28:32;;;;;;;;;;;;;;;;;;4912418;28;19929;-70
2023/02/23 06:30:58;;;;;;;;;;;;;;;;;;4923892;28;19968;-71
2023/02/23 06:33:24;;;;;;;;;;;;;;;;;;4919049;28;20236;-69
2023/02/23 06:35:50;;;;;;;;;;;;;;;;;;4906364;28;19915;-69
2023/02/23 06:38:16;;;;;;;;;;;;;;;;;;4908013;28;19941;-70
2023/02/23 06:40:42;;;;;;;;;;;;;;;;;;4903020;28;19922;-71
2023/02/23 06:43:08;;;;;;;;;;;;;;;;;;4906007;28;20072;-70
2023/02/23 06:45:34;;;;;;;;;;;;;;;;;;4921204;28;19914;-69
2023/02/23 06:48:00;;;;;;;;;;;;;;;;;;4922758;28;20368;-69
2023/02/23 06:50:26;;;;;;;;;;;;;;;;;;4923136;28;20033;-69
2023/02/23 06:52:52;;;;;;;;;;;;;;;;;;4928107;28;20391;-69
2023/02/23 06:55:18;;;;;;;;;;;;;;;;;;4924466;28;19913;-70
2023/02/23 06:57:44;;;;;;;;;;;;;;;;;;4920883;28;20344;-70
2023/02/23 07:00:13;;;;;;;;;;;;;;;;;;4925692;28;19953;-70
2023/02/23 07:02:39;;;;;;;;;;;;;;;;;;4919635;28;19985;-71
2023/02/23 07:05:05;;;;;;;;;;;;;;;;;;4922531;28;20298;-69
2023/02/23 07:07:31;;;;;;;;;;;;;;;;;;4921760;28;20689;-70
2023/02/23 07:09:57;;;;;;;;;;;;;;;;;;4903952;28;19914;-70
2023/02/23 07:12:23;;;;;;;;;;;;;;;;;;4917098;28;20447;-70
2023/02/23 07:14:49;;;;;;;;;;;;;;;;;;4919529;28;20024;-70
2023/02/23 07:17:16;;;;;;;;;;;;;;;;;;4921310;28;19921;-70
2023/02/23 07:19:42;;;;;;;;;;;;;;;;;;4920513;28;20375;-70
2023/02/23 07:22:08;;;;;;;;;;;;;;;;;;4918865;28;19915;-70
2023/02/23 07:24:34;;;;;;;;;;;;;;;;;;4917501;28;20557;-71
2023/02/23 07:27:00;;;;;;;;;;;;;;;;;;4908023;28;20041;-70
2023/02/23 07:29:27;;;;;;;;;;;;;;;;;;4919370;28;20706;-70
2023/02/23 07:31:53;;;;;;;;;;;;;;;;;;4917876;28;19926;-69
2023/02/23 07:34:19;;;;;;;;;;;;;;;;;;4918270;28;19922;-71
2023/02/23 07:36:44;;;;;;;;;;;;;;;;;;4922365;28;20082;-71
2023/02/23 07:39:11;;;;;;;;;;;;;;;;;;4919439;28;19954;-69
2023/02/23 07:41:37;;;;;;;;;;;;;;;;;;4900377;28;20365;-71
2023/02/23 07:44:03;;;;;;;;;;;;;;;;;;4919455;28;19972;-69
2023/02/23 07:46:29;;;;;;;;;;;;;;;;;;4908237;28;20034;-69
2023/02/23 07:48:55;;;;;;;;;;;;;;;;;;4896732;28;19918;-71
2023/02/23 07:51:21;;;;;;;;;;;;;;;;;;4903057;28;19949;-71
2023/02/23 07:53:48;;;;;;;;;;;;;;;;;;4890715;28;19937;-68
2023/02/23 07:56:14;;;;;;;;;;;;;;;;;;4918994;28;20029;-70
2023/02/23 07:58:40;;;;;;;;;;;;;;;;;;4924515;28;20060;-70
2023/02/23 08:01:06;;;;;;;;;;;;;;;;;;4922710;28;20369;-69
2023/02/23 08:03:32;;;;;;;;;;;;;;;;;;4917639;28;19918;-70
2023/02/23 08:05:58;;;;;;;;;;;;;;;;;;4909345;28;19918;-70
2023/02/23 08:08:24;;;;;;;;;;;;;;;;;;4922842;28;20356;-70
2023/02/23 08:10:50;;;;;;;;;;;;;;;;;;4924524;28;19922;-70
2023/02/23 08:13:16;;;;;;;;;;;;;;;;;;4920844;28;19915;-70
2023/02/23 08:15:42;;;;;;;;;;;;;;;;;;4925500;28;20053;-70
2023/02/23 08:18:08;;;;;;;;;;;;;;;;;;4922987;28;20482;-69
2023/02/23 08:20:34;;;;;;;;;;;;;;;;;;4919088;28;20270;-70
2023/02/23 08:23:00;;;;;;;;;;;;;;;;;;4912950;28;19970;-70
2023/02/23 08:25:29;;;;;;;;;;;;;;;;;;4923397;28;20357;-70
2023/02/23 08:27:55;;;;;;;;;;;;;;;;;;4901000;28;19915;-70
2023/02/23 08:30:21;;;;;;;;;;;;;;;;;;4879835;28;20264;-70
2023/02/23 08:32:47;;;;;;;;;;;;;;;;;;4882917;28;20755;-69
2023/02/23 08:35:13;;;;;;;;;;;;;;;;;;4869568;28;19948;-70
2023/02/23 08:37:40;;;;;;;;;;;;;;;;;;4867768;28;19914;-71
2023/02/23 08:40:06;;;;;;;;;;;;;;;;;;4885310;28;19928;-68
2023/02/23 08:42:32;;;;;;;;;;;;;;;;;;4883349;28;21641;-67
2023/02/23 08:45:00;;;;;;;;;;;;;;;;;;4883766;28;20372;-69
2023/02/23 08:47:26;;;;;;;;;;;;;;;;;;4870907;28;21303;-68
2023/02/23 08:49:53;;;;;;;;;;;;;;;;;;4883344;28;20049;-68
2023/02/23 08:52:19;;;;;;;;;;;;;;;;;;4876257;28;19914;-69
2023/02/23 08:54:45;;;;;;;;;;;;;;;;;;4868951;28;19956;-68
2023/02/23 08:57:11;;;;;;;;;;;;;;;;;;4871201;28;19989;-65
2023/02/23 08:59:38;;;;;;;;;;;;;;;;;;4879013;28;21154;-66
2023/02/23 09:02:04;;;;;;;;;;;;;;;;;;4884059;28;19919;-66
2023/02/23 09:04:29;;;;;;;;;;;;;;;;;;4880854;28;20017;-64
2023/02/23 09:06:55;;;;;;;;;;;;;;;;;;4921578;28;19922;-66
2023/02/23 09:09:21;;;;;;;;;;;;;;;;;;4917938;28;20460;-66
2023/02/23 09:11:47;;;;;;;;;;;;;;;;;;4926053;28;19969;-69
2023/02/23 09:14:13;;;;;;;;;;;;;;;;;;4925795;28;19919;-67
2023/02/23 09:16:39;;;;;;;;;;;;;;;;;;4907135;28;19920;-73
2023/02/23 09:19:05;;;;;;;;;;;;;;;;;;4922161;28;20273;-69
2023/02/23 09:21:33;;;;;;;;;;;;;;;;;;4917740;28;20635;-70
2023/02/23 09:24:00;;;;;;;;;;;;;;;;;;4920297;28;20147;-69
2023/02/23 09:26:28;;;;;;;;;;;;;;;;;;4922449;28;19914;-70
2023/02/23 09:28:54;;;;;;;;;;;;;;;;;;4926356;28;19918;-72
2023/02/23 09:31:20;;;;;;;;;;;;;;;;;;4923775;28;19964;-71
2023/02/23 09:33:46;;;;;;;;;;;;;;;;;;4919965;28;19914;-72
2023/02/23 09:36:15;;;;;;;;;;;;;;;;;;4924860;28;20780;-73
2023/02/23 09:38:40;;;;;;;;;;;;;;;;;;4925244;28;19918;-73
2023/02/23 09:41:07;;;;;;;;;;;;;;;;;;4908003;28;19977;-73
2023/02/23 09:43:33;;;;;;;;;;;;;;;;;;4922128;28;21923;-71
2023/02/23 09:45:59;;;;;;;;;;;;;;;;;;4921177;28;20488;-66
2023/02/23 09:48:25;;;;;;;;;;;;;;;;;;4923589;28;20144;-76
2023/02/23 09:50:51;;;;;;;;;;;;;;;;;;4923740;28;19918;-76
2023/02/23 09:53:17;;;;;;;;;;;;;;;;;;4923043;28;19999;-74
2023/02/23 09:55:43;;;;;;;;;;;;;;;;;;4907733;28;20454;-66
2023/02/23 09:58:09;;;;;;;;;;;;;;;;;;4924247;28;20446;-66
2023/02/23 10:00:35;;;;;;;;;;;;;;;;;;4907167;28;19914;-68
2023/02/23 10:03:01;;;;;;;;;;;;;;;;;;4926838;28;19929;-66
2023/02/23 10:05:30;;;;;;;;;;;;;;;;;;4921238;28;19914;-65
2023/02/23 10:07:56;;;;;;;;;;;;;;;;;;4928778;28;20312;-67
2023/02/23 10:10:22;;;;;;;;;;;;;;;;;;4919576;28;19997;-68
2023/02/23 10:12:48;;;;;;;;;;;;;;;;;;4926167;28;20344;-66
2023/02/23 10:15:14;;;;;;;;;;;;;;;;;;4922827;28;20267;-69
2023/02/23 10:17:40;;;;;;;;;;;;;;;;;;4911227;28;19921;-65
2023/02/23 10:20:06;;;;;;;;;;;;;;;;;;4926192;28;20282;-67
2023/02/23 10:22:32;;;;;;;;;;;;;;;;;;4909863;28;19936;-67
2023/02/23 10:24:58;;;;;;;;;;;;;;;;;;4929342;28;20439;-67
2023/02/23 10:27:24;;;;;;;;;;;;;;;;;;4919661;28;19913;-66
2023/02/23 10:29:50;;;;;;;;;;;;;;;;;;4913502;28;19921;-65
2023/02/23 10:32:16;;;;;;;;;;;;;;;;;;4928317;28;19914;-71
2023/02/23 10:34:42;;;;;;;;;;;;;;;;;;4917694;28;19914;-68
2023/02/23 10:37:08;;;;;;;;;;;;;;;;;;4928148;28;19922;-67
2023/02/23 10:39:34;;;;;;;;;;;;;;;;;;4924552;28;19950;-68
2023/02/23 10:42:00;;;;;;;;;;;;;;;;;;4929809;28;19914;-66
2023/02/23 10:44:26;;;;;;;;;;;;;;;;;;4910398;28;19922;-65
2023/02/23 10:46:52;;;;;;;;;;;;;;;;;;4923729;28;20262;-66
2023/02/23 10:49:21;;;;;;;;;;;;;;;;;;4926321;28;20278;-69
2023/02/23 10:51:47;;;;;;;;;;;;;;;;;;4914237;29;19914;-67
2023/02/23 10:54:13;;;;;;;;;;;;;;;;;;4920380;28;20475;-65
2023/02/23 10:56:39;;;;;;;;;;;;;;;;;;4922471;28;20361;-69
2023/02/23 10:59:08;;;;;;;;;;;;;;;;;;4911931;29;20064;-70
2023/02/23 11:01:35;;;;;;;;;;;;;;;;;;4908365;28;20037;-66
2023/02/23 11:04:01;;;;;;;;;;;;;;;;;;4928756;28;19921;-66
2023/02/23 11:06:27;;;;;;;;;;;;;;;;;;4928134;28;19969;-68
2023/02/23 11:08:54;;;;;;;;;;;;;;;;;;4930430;28;19921;-67
2023/02/23 11:11:20;;;;;;;;;;;;;;;;;;4910838;28;20038;-68
2023/02/23 11:13:46;;;;;;;;;;;;;;;;;;4924240;28;20517;-67
2023/02/23 11:16:12;;;;;;;;;;;;;;;;;;4929460;28;19914;-70
2023/02/23 11:18:38;;;;;;;;;;;;;;;;;;4927948;28;19922;-67
2023/02/23 11:21:04;;;;;;;;;;;;;;;;;;4930400;28;19969;-67
2023/02/23 11:23:30;;;;;;;;;;;;;;;;;;4924942;28;20760;-67
2023/02/23 11:25:58;;;;;;;;;;;;;;;;;;4915121;28;20443;-68
2023/02/23 11:28:24;;;;;;;;;;;;;;;;;;4926248;28;19910;-67
2023/02/23 11:30:50;;;;;;;;;;;;;;;;;;4924985;28;19921;-72
2023/02/23 11:33:16;;;;;;;;;;;;;;;;;;4909410;28;19915;-72
2023/02/23 11:35:42;;;;;;;;;;;;;;;;;;4926065;28;19921;-66
2023/02/23 11:38:08;;;;;;;;;;;;;;;;;;4920493;28;20323;-67
2023/02/23 11:40:34;;;;;;;;;;;;;;;;;;4923527;28;19918;-67
2023/02/23 11:43:00;;;;;;;;;;;;;;;;;;4926192;28;19930;-68
2023/02/23 11:45:26;;;;;;;;;;;;;;;;;;4925346;28;19922;-67
2023/02/23 11:47:52;;;;;;;;;;;;;;;;;;4905736;28;20711;-67
2023/02/23 11:50:18;;;;;;;;;;;;;;;;;;4925836;28;19969;-67
2023/02/23 11:52:44;;;;;;;;;;;;;;;;;;4914269;28;20358;-67
2023/02/23 11:55:10;;;;;;;;;;;;;;;;;;4926254;28;19918;-68
2023/02/23 11:57:36;;;;;;;;;;;;;;;;;;4918371;28;19914;-70
2023/02/23 12:00:02;;;;;;;;;;;;;;;;;;4904917;28;19918;-70
2023/02/23 12:02:28;;;;;;;;;;;;;;;;;;4909573;28;19970;-68
2023/02/23 12:04:54;;;;;;;;;;;;;;;;;;4923124;28;19918;-67
2023/02/23 12:07:20;;;;;;;;;;;;;;;;;;4924405;28;20250;-68
2023/02/23 12:09:46;;;;;;;;;;;;;;;;;;4910708;29;19918;-67
2023/02/23 12:12:12;;;;;;;;;;;;;;;;;;4915686;28;20171;-70
2023/02/23 12:14:38;;;;;;;;;;;;;;;;;;4921371;28;19970;-69
2023/02/23 12:17:05;;;;;;;;;;;;;;;;;;4909962;28;20268;-67
2023/02/23 12:19:31;;;;;;;;;;;;;;;;;;4917902;28;19914;-68
2023/02/23 12:21:57;;;;;;;;;;;;;;;;;;4923063;28;19914;-69
2023/02/23 12:24:23;;;;;;;;;;;;;;;;;;4917511;28;20539;-71
2023/02/23 12:26:49;;;;;;;;;;;;;;;;;;4922255;28;19930;-69
2023/02/23 12:29:17;;;;;;;;;;;;;;;;;;4923391;28;19965;-67
2023/02/23 12:31:43;;;;;;;;;;;;;;;;;;4904453;28;20352;-68
2023/02/23 12:34:09;;;;;;;;;;;;;;;;;;4919893;28;20311;-68
2023/02/23 12:36:37;;;;;;;;;;;;;;;;;;4915493;28;20590;-68
2023/02/23 12:39:06;;;;;;;;;;;;;;;;;;4922667;28;20401;-68
2023/02/23 12:41:32;;;;;;;;;;;;;;;;;;4915041;28;20263;-72
2023/02/23 12:43:58;;;;;;;;;;;;;;;;;;4924980;28;20167;-70
2023/02/23 12:46:24;;;;;;;;;;;;;;;;;;4903670;28;20231;-69
2023/02/23 12:48:50;;;;;;;;;;;;;;;;;;4914210;28;20075;-66
2023/02/23 12:51:16;;;;;;;;;;;;;;;;;;4918588;28;19945;-67
2023/02/23 12:53:42;;;;;;;;;;;;;;;;;;4907854;28;20925;-70
2023/02/23 12:56:08;;;;;;;;;;;;;;;;;;4918351;28;19918;-68
2023/02/23 12:58:34;;;;;;;;;;;;;;;;;;4922063;28;20202;-71
2023/02/23 13:01:00;;;;;;;;;;;;;;;;;;4919372;28;20395;-70
2023/02/23 13:03:25;;;;;;;;;;;;;;;;;;4921953;28;19918;-69
2023/02/23 13:05:51;;;;;;;;;;;;;;;;;;4920882;28;20041;-67
2023/02/23 13:08:20;;;;;;;;;;;;;;;;;;4914999;28;19985;-66
2023/02/23 13:10:47;;;;;;;;;;;;;;;;;;4923436;28;20000;-70
2023/02/23 13:13:15;;;;;;;;;;;;;;;;;;4911875;28;20235;-68
2023/02/23 13:15:41;;;;;;;;;;;;;;;;;;4918742;28;19919;-67
2023/02/23 13:18:07;;;;;;;;;;;;;;;;;;4916699;28;19921;-69
2023/02/23 13:20:33;;;;;;;;;;;;;;;;;;4896728;28;19914;-69
2023/02/23 13:22:59;;;;;;;;;;;;;;;;;;4921292;28;20029;-71
2023/02/23 13:25:25;;;;;;;;;;;;;;;;;;4919375;28;20213;-69
2023/02/23 13:27:51;;;;;;;;;;;;;;;;;;4917531;28;20027;-68
2023/02/23 13:30:19;;;;;;;;;;;;;;;;;;4907942;28;20205;-69
2023/02/23 13:32:45;;;;;;;;;;;;;;;;;;4898562;28;19914;-69
2023/02/23 13:35:11;;;;;;;;;;;;;;;;;;4915997;28;20674;-70
2023/02/23 13:37:37;;;;;;;;;;;;;;;;;;4915445;28;20382;-69
2023/02/23 13:40:03;;;;;;;;;;;;;;;;;;4918885;28;20047;-70
2023/02/23 13:42:29;;;;;;;;;;;;;;;;;;4915502;28;20233;-69
2023/02/23 13:44:55;;;;;;;;;;;;;;;;;;4895923;28;19930;-69
2023/02/23 13:47:22;;;;;;;;;;;;;;;;;;4917702;28;19922;-69
2023/02/23 13:49:48;;;;;;;;;;;;;;;;;;4900167;28;20271;-70
2023/02/23 13:52:14;;;;;;;;;;;;;;;;;;4915919;28;20680;-68
2023/02/23 13:54:41;;;;;;;;;;;;;;;;;;4905805;28;20713;-69
2023/02/23 13:57:07;;;;;;;;;;;;;;;;;;4901108;28;19914;-70
2023/02/23 13:59:33;;;;;;;;;;;;;;;;;;4915794;28;19921;-70
2023/02/23 14:01:59;;;;;;;;;;;;;;;;;;4924187;28;20371;-69
2023/02/23 14:04:25;;;;;;;;;;;;;;;;;;4911549;28;19918;-68
2023/02/23 14:06:52;;;;;;;;;;;;;;;;;;4916829;28;19915;-68
2023/02/23 14:09:20;;;;;;;;;;;;;;;;;;4920202;28;20279;-67
2023/02/23 14:11:46;;;;;;;;;;;;;;;;;;4899321;28;19929;-70
2023/02/23 14:14:12;;;;;;;;;;;;;;;;;;4919393;28;20434;-69
2023/02/23 14:16:38;;;;;;;;;;;;;;;;;;4901909;28;21036;-71
2023/02/23 14:19:04;;;;;;;;;;;;;;;;;;4899727;28;20436;-70
2023/02/23 14:21:30;;;;;;;;;;;;;;;;;;4917899;28;20378;-71
2023/02/23 14:23:56;;;;;;;;;;;;;;;;;;4902865;28;19918;-69
2023/02/23 14:26:23;;;;;;;;;;;;;;;;;;4911020;28;20448;-69
2023/02/23 14:28:49;;;;;;;;;;;;;;;;;;4917680;28;20353;-71
2023/02/23 14:31:15;;;;;;;;;;;;;;;;;;4916663;28;19961;-69
2023/02/23 14:33:41;;;;;;;;;;;;;;;;;;4903784;28;19915;-69
2023/02/23 14:36:07;;;;;;;;;;;;;;;;;;4922876;28;19930;-69
2023/02/23 14:38:33;;;;;;;;;;;;;;;;;;4901956;28;19964;-71
2023/02/23 14:41:00;;;;;;;;;;;;;;;;;;4904776;28;19997;-71
2023/02/23 14:43:26;;;;;;;;;;;;;;;;;;4915457;28;20371;-69
2023/02/23 14:45:52;;;;;;;;;;;;;;;;;;4917418;28;19915;-72
2023/02/23 14:48:21;;;;;;;;;;;;;;;;;;4915689;28;20341;-72
2023/02/23 14:50:47;;;;;;;;;;;;;;;;;;4917277;28;19914;-72
2023/02/23 14:53:13;;;;;;;;;;;;;;;;;;4919072;28;19946;-69
2023/02/23 14:55:39;;;;;;;;;;;;;;;;;;4908347;28;19919;-73
2023/02/23 14:58:05;;;;;;;;;;;;;;;;;;4901066;28;19915;-71
2023/02/23 15:00:37;;;;;;;;;;;;;;;;;;4913441;28;19921;-71
2023/02/23 15:03:03;;;;;;;;;;;;;;;;;;4912785;28;19921;-70
2023/02/23 15:05:29;;;;;;;;;;;;;;;;;;4903030;28;19918;-69
2023/02/23 15:07:55;;;;;;;;;;;;;;;;;;4904654;28;20021;-71
2023/02/23 15:10:21;;;;;;;;;;;;;;;;;;4919966;28;19922;-72
2023/02/23 15:12:47;;;;;;;;;;;;;;;;;;4923717;28;19922;-69
2023/02/23 15:15:13;;;;;;;;;;;;;;;;;;4922458;28;19918;-69
2023/02/23 15:17:39;;;;;;;;;;;;;;;;;;4907691;28;19919;-69
2023/02/23 15:20:06;;;;;;;;;;;;;;;;;;4917576;28;19957;-72
2023/02/23 15:22:32;;;;;;;;;;;;;;;;;;4901961;28;19977;-71
2023/02/23 15:24:58;;;;;;;;;;;;;;;;;;4906260;28;20685;-72
2023/02/23 15:27:25;;;;;;;;;;;;;;;;;;4907402;28;20052;-70
2023/02/23 15:29:51;;;;;;;;;;;;;;;;;;4902826;28;20368;-70
2023/02/23 15:32:17;;;;;;;;;;;;;;;;;;4918080;28;19918;-69
2023/02/23 15:34:43;;;;;;;;;;;;;;;;;;4908456;28;19915;-70
2023/02/23 15:37:09;;;;;;;;;;;;;;;;;;4918667;28;20056;-68
2023/02/23 15:39:36;;;;;;;;;;;;;;;;;;4920044;28;19922;-68
2023/02/23 15:42:02;;;;;;;;;;;;;;;;;;4919788;28;19921;-71
2023/02/23 15:44:30;;;;;;;;;;;;;;;;;;4916132;28;19922;-68
2023/02/23 15:46:56;;;;;;;;;;;;;;;;;;5162422;23;20013;-76
2023/02/23 15:49:23;;;;;;;;;;;;;;;;;;4919986;28;20187;-74
2023/02/23 15:51:49;;;;;;;;;;;;;;;;;;4928339;28;20220;-74
2023/02/23 15:54:15;;;;;;;;;;;;;;;;;;4934794;28;20409;-74
2023/02/23 15:56:45;;;;;;;;;;;;;;;;;;4918946;28;20876;-73
2023/02/23 15:59:11;;;;;;;;;;;;;;;;;;4934448;28;19965;-72
2023/02/23 16:01:41;;;;;;;;;;;;;;;;;;4921224;28;19918;-73
2023/02/23 16:04:08;;;;;;;;;;;;;;;;;;4918522;28;19925;-73
2023/02/23 16:06:34;;;;;;;;;;;;;;;;;;4913517;28;19921;-73
2023/02/23 16:09:03;;;;;;;;;;;;;;;;;;4919109;29;19918;-73
2023/02/23 16:11:29;;;;;;;;;;;;;;;;;;4919265;28;19914;-72
2023/02/23 16:13:54;;;;;;;;;;;;;;;;;;4919847;29;20140;-72
2023/02/23 16:16:24;;;;;;;;;;;;;;;;;;4919764;29;20353;-73
2023/02/23 16:18:50;;;;;;;;;;;;;;;;;;4922299;28;20424;-74
2023/02/23 16:21:16;;;;;;;;;;;;;;;;;;4914972;28;19921;-74
2023/02/23 16:23:43;;;;;;;;;;;;;;;;;;4919456;29;20012;-73
2023/02/23 16:26:09;;;;;;;;;;;;;;;;;;4917757;28;20338;-73
2023/02/23 16:28:35;;;;;;;;;;;;;;;;;;4934139;28;20910;-73
2023/02/23 16:31:01;;;;;;;;;;;;;;;;;;4918904;29;19918;-73
2023/02/23 16:33:27;;;;;;;;;;;;;;;;;;4918335;28;20482;-73
2023/02/23 16:35:54;;;;;;;;;;;;;;;;;;4910858;29;19910;-73
2023/02/23 16:38:20;;;;;;;;;;;;;;;;;;4919753;28;20457;-74
2023/02/23 16:40:47;;;;;;;;;;;;;;;;;;4920173;29;19915;-73
2023/02/23 16:43:14;;;;;;;;;;;;;;;;;;4923557;29;20302;-73
2023/02/23 16:45:40;;;;;;;;;;;;;;;;;;4909267;29;20292;-75
2023/02/23 16:48:10;;;;;;;;;;;;;;;;;;4905917;29;20779;-72
2023/02/23 16:50:39;;;;;;;;;;;;;;;;;;4903379;29;20050;-73
2023/02/23 16:53:08;;;;;;;;;;;;;;;;;;4904870;29;19915;-72
2023/02/23 16:55:37;;;;;;;;;;;;;;;;;;4903062;29;20599;-73
2023/02/23 16:58:03;;;;;;;;;;;;;;;;;;4907038;29;21489;-73
2023/02/23 17:00:29;;;;;;;;;;;;;;;;;;4902520;29;19926;-74
2023/02/23 17:02:56;;;;;;;;;;;;;;;;;;4905002;29;20093;-74
2023/02/23 17:05:25;;;;;;;;;;;;;;;;;;4900917;29;19922;-74
2023/02/23 17:07:51;;;;;;;;;;;;;;;;;;4907068;29;19968;-73
2023/02/23 17:10:23;;;;;;;;;;;;;;;;;;4902572;29;19918;-73
2023/02/23 17:12:49;;;;;;;;;;;;;;;;;;4887866;29;20017;-74
2023/02/23 17:15:15;;;;;;;;;;;;;;;;;;4902235;29;20361;-73
2023/02/23 17:17:41;;;;;;;;;;;;;;;;;;4887462;29;20243;-73
2023/02/23 17:20:14;;;;;;;;;;;;;;;;;;4900407;29;19915;-73
2023/02/23 17:22:40;;;;;;;;;;;;;;;;;;4907575;29;20036;-73
2023/02/23 17:25:06;;;;;;;;;;;;;;;;;;4903929;29;20440;-73
2023/02/23 17:27:32;;;;;;;;;;;;;;;;;;4901698;29;20010;-73
2023/02/23 17:29:58;;;;;;;;;;;;;;;;;;4904209;29;20353;-74
2023/02/23 17:32:24;;;;;;;;;;;;;;;;;;4901467;29;20760;-73
2023/02/23 17:34:51;;;;;;;;;;;;;;;;;;4902373;29;19914;-72
2023/02/23 17:37:19;;;;;;;;;;;;;;;;;;4900612;29;20582;-73
2023/02/23 17:39:47;;;;;;;;;;;;;;;;;;4903869;29;21347;-73
2023/02/23 17:42:13;;;;;;;;;;;;;;;;;;4902861;29;20005;-73
2023/02/23 17:44:39;;;;;;;;;;;;;;;;;;4900726;29;19926;-73
2023/02/23 17:47:05;;;;;;;;;;;;;;;;;;4907377;29;20451;-72
2023/02/23 17:49:31;;;;;;;;;;;;;;;;;;4902862;29;19919;-74
2023/02/23 17:51:57;;;;;;;;;;;;;;;;;;4902756;29;19936;-74
2023/02/23 17:54:23;;;;;;;;;;;;;;;;;;4882038;29;19927;-74
2023/02/23 17:56:49;;;;;;;;;;;;;;;;;;4902339;29;19964;-73
2023/02/23 17:59:15;;;;;;;;;;;;;;;;;;4902046;29;19914;-73